Yukuhashi, Japan
Current Conditions -  °F | °C
As of 1:00 PM on Thursday 29 Jan 2015 (Local Time) from RJFR Reporting Station
Broken Clouds Broken Clouds  
Wind Chill: 38°   Ceiling: 10000
Heat Index: 43°   Visibility: 6mi
Dew Point: 32°   Wind: 8mph
Humidity: 66%   Direction: NA
Pressure: 30.24"   Gusts: NA
Location:  33.73°N, 130.97°E
Report Text: RJFR 290400Z VRB07KT 9999 FEW030 SCT080 BKN100 06/M00 Q1024
Loading
Personal Weather Stations






























Interactive Weather Map New forecast layout! Learn more

10-Day Weather Forecast

Advertisements
Track Severe Weather on mobile